createdAt,value
2019-06-20T00:00:05.000Z,15.85
2019-06-20T00:04:53.000Z,15.76
2019-06-20T00:09:40.000Z,15.62
2019-06-20T00:14:28.000Z,15.50
2019-06-20T00:19:15.000Z,15.42
2019-06-20T00:24:03.000Z,15.30
2019-06-20T00:28:52.000Z,15.20
2019-06-20T00:33:38.000Z,15.11
2019-06-20T00:38:25.000Z,15.03
2019-06-20T00:43:13.000Z,14.95
2019-06-20T00:48:00.000Z,14.86
2019-06-20T00:52:48.000Z,14.81
2019-06-20T00:57:35.000Z,14.76
2019-06-20T01:02:23.000Z,14.69
2019-06-20T01:07:10.000Z,14.63
2019-06-20T01:11:58.000Z,14.60
2019-06-20T01:16:45.000Z,14.55
2019-06-20T01:21:33.000Z,14.48
2019-06-20T01:26:20.000Z,14.48
2019-06-20T01:31:08.000Z,14.51
2019-06-20T01:35:55.000Z,14.53
2019-06-20T01:40:43.000Z,14.51
2019-06-20T01:45:30.000Z,14.49
2019-06-20T01:50:18.000Z,14.46
2019-06-20T01:55:06.000Z,14.42
2019-06-20T01:59:55.000Z,14.48
2019-06-20T02:04:41.000Z,14.55
2019-06-20T02:09:29.000Z,14.80
2019-06-20T02:14:17.000Z,15.90
2019-06-20T02:19:06.000Z,17.08
2019-06-20T02:23:54.000Z,17.76
2019-06-20T02:28:42.000Z,18.14
2019-06-20T02:33:30.000Z,18.35
2019-06-20T02:38:17.000Z,18.36
2019-06-20T02:43:07.000Z,18.19
2019-06-20T02:47:52.000Z,17.95
2019-06-20T02:52:40.000Z,17.76
2019-06-20T02:57:27.000Z,17.59
2019-06-20T03:02:15.000Z,17.44
2019-06-20T03:07:02.000Z,17.33
2019-06-20T03:11:50.000Z,17.21
2019-06-20T03:16:39.000Z,17.12
2019-06-20T05:39:33.000Z,16.45
2019-06-20T06:22:39.000Z,20.31
2019-06-20T08:57:27.000Z,32.32
2019-06-20T08:59:27.000Z,31.49
2019-06-20T09:01:24.000Z,30.63
2019-06-20T09:03:22.000Z,29.84
2019-06-20T09:05:19.000Z,29.22
2019-06-20T09:07:17.000Z,28.72
2019-06-20T09:09:15.000Z,28.30
2019-06-20T09:11:13.000Z,27.65
2019-06-20T09:13:11.000Z,26.91
2019-06-20T09:15:09.000Z,26.64
2019-06-20T09:17:07.000Z,26.44
2019-06-20T09:19:04.000Z,26.28
2019-06-20T09:21:02.000Z,26.20
2019-06-20T09:23:59.000Z,26.20
2019-06-20T09:25:56.000Z,26.10
2019-06-20T09:27:54.000Z,26.33
2019-06-20T09:29:53.000Z,26.47
2019-06-20T09:31:51.000Z,26.60
2019-06-20T09:33:48.000Z,27.03
2019-06-20T09:35:46.000Z,27.43
2019-06-20T09:37:44.000Z,27.93
2019-06-20T09:39:42.000Z,28.25
2019-06-20T09:41:39.000Z,28.31
2019-06-20T09:43:37.000Z,28.10
2019-06-20T09:45:35.000Z,27.92
2019-06-20T09:47:33.000Z,28.35
2019-06-20T09:49:31.000Z,29.23
2019-06-20T09:51:30.000Z,30.21
2019-06-20T09:53:27.000Z,30.75
2019-06-20T09:55:25.000Z,31.13
2019-06-20T09:57:23.000Z,31.71
2019-06-20T09:59:21.000Z,32.44
2019-06-20T10:01:21.000Z,32.86
2019-06-20T10:02:18.000Z,32.80
2019-06-20T10:03:17.000Z,32.63
2019-06-20T10:04:16.000Z,32.38
2019-06-20T10:05:14.000Z,32.14
2019-06-20T10:06:13.000Z,31.98
2019-06-20T10:07:12.000Z,31.83
2019-06-20T10:08:11.000Z,31.72
2019-06-20T10:09:10.000Z,31.73
2019-06-20T10:10:10.000Z,31.90
2019-06-20T10:11:08.000Z,32.15
2019-06-20T10:12:07.000Z,32.44
2019-06-20T10:13:07.000Z,32.78
2019-06-20T10:14:06.000Z,33.10
2019-06-20T10:15:05.000Z,33.42
2019-06-20T10:16:04.000Z,33.79
2019-06-20T10:17:03.000Z,33.95
2019-06-20T10:18:02.000Z,33.83
2019-06-20T10:19:59.000Z,33.80
2019-06-20T10:20:58.000Z,33.76
2019-06-20T10:21:57.000Z,33.86
2019-06-20T10:22:56.000Z,34.03
2019-06-20T10:23:55.000Z,34.19
2019-06-20T10:24:54.000Z,34.31
2019-06-20T10:25:53.000Z,34.47
2019-06-20T10:26:52.000Z,34.47
2019-06-20T10:27:51.000Z,34.56
2019-06-20T10:28:50.000Z,34.42
2019-06-20T10:29:49.000Z,34.29
2019-06-20T10:30:48.000Z,34.33
2019-06-20T10:31:47.000Z,34.44
2019-06-20T10:32:46.000Z,34.57
2019-06-20T10:33:45.000Z,34.77
2019-06-20T10:34:44.000Z,35.06
2019-06-20T10:35:43.000Z,35.39
2019-06-20T10:36:42.000Z,35.61
2019-06-20T10:37:42.000Z,35.83
2019-06-20T10:38:42.000Z,36.03
2019-06-20T10:40:39.000Z,36.16
2019-06-20T10:41:38.000Z,36.23
2019-06-20T10:42:37.000Z,36.29
2019-06-20T10:43:36.000Z,36.04
2019-06-20T10:44:34.000Z,35.51
2019-06-20T10:45:33.000Z,34.90
2019-06-20T10:46:32.000Z,34.23
2019-06-20T10:47:31.000Z,33.65
2019-06-20T10:48:31.000Z,33.14
2019-06-20T10:50:28.000Z,32.66
2019-06-20T10:51:27.000Z,32.31
2019-06-20T10:52:26.000Z,32.15
2019-06-20T10:53:25.000Z,32.19
2019-06-20T10:54:24.000Z,32.18
2019-06-20T10:55:23.000Z,32.02
2019-06-20T10:56:21.000Z,31.73
2019-06-20T10:57:21.000Z,31.53
2019-06-20T10:58:19.000Z,31.47
2019-06-20T11:00:17.000Z,31.42
2019-06-20T11:02:16.000Z,31.19
2019-06-20T11:04:12.000Z,30.89
2019-06-20T11:06:10.000Z,30.71
2019-06-20T11:08:08.000Z,31.01
2019-06-20T11:10:06.000Z,31.06
2019-06-20T11:12:04.000Z,30.85
2019-06-20T11:14:01.000Z,31.02
2019-06-20T11:16:58.000Z,31.73
2019-06-20T11:18:56.000Z,31.76
2019-06-20T11:20:54.000Z,31.26
2019-06-20T11:22:51.000Z,30.85
2019-06-20T11:24:49.000Z,30.56
2019-06-20T11:26:47.000Z,30.20
2019-06-20T11:28:44.000Z,29.65
2019-06-20T11:30:42.000Z,29.34
2019-06-20T11:32:40.000Z,29.63
2019-06-20T11:34:38.000Z,30.24
2019-06-20T11:36:36.000Z,30.56
2019-06-20T11:38:34.000Z,30.95
2019-06-20T11:40:32.000Z,31.69
2019-06-20T11:42:30.000Z,32.60
2019-06-20T11:44:28.000Z,33.47
2019-06-20T11:46:26.000Z,34.19
2019-06-20T11:48:25.000Z,34.84
2019-06-20T11:50:23.000Z,35.41
2019-06-20T11:52:21.000Z,35.88
2019-06-20T11:54:18.000Z,36.42
2019-06-20T11:56:17.000Z,36.44
2019-06-20T11:58:13.000Z,35.48
2019-06-20T12:00:12.000Z,34.60
2019-06-20T12:02:08.000Z,34.30
2019-06-20T12:04:06.000Z,34.50
2019-06-20T12:06:04.000Z,34.73
2019-06-20T12:08:02.000Z,34.56
2019-06-20T12:10:59.000Z,34.84
2019-06-20T12:12:57.000Z,34.87
2019-06-20T12:14:55.000Z,34.61
2019-06-20T12:16:54.000Z,34.18
2019-06-20T12:18:50.000Z,33.84
2019-06-20T12:20:48.000Z,33.45
2019-06-20T12:22:46.000Z,33.00
2019-06-20T12:24:44.000Z,32.49
2019-06-20T12:26:42.000Z,31.88
2019-06-20T12:28:39.000Z,31.15
2019-06-20T12:30:37.000Z,30.44
2019-06-20T12:32:36.000Z,29.77
2019-06-20T12:34:32.000Z,29.38
2019-06-20T12:36:30.000Z,29.09
2019-06-20T12:38:28.000Z,28.91
2019-06-20T12:40:26.000Z,29.18
2019-06-20T12:42:24.000Z,30.17
2019-06-20T12:44:22.000Z,31.34
2019-06-20T12:46:20.000Z,32.03
2019-06-20T12:48:19.000Z,32.66
2019-06-20T12:50:16.000Z,33.68
2019-06-20T12:52:15.000Z,34.31
2019-06-20T12:54:12.000Z,33.89
2019-06-20T12:56:11.000Z,33.56
2019-06-20T12:58:06.000Z,34.01
2019-06-20T13:00:04.000Z,34.38
2019-06-20T13:02:02.000Z,33.73
2019-06-20T13:04:59.000Z,32.01
2019-06-20T13:06:56.000Z,31.04
2019-06-20T13:08:54.000Z,30.37
2019-06-20T13:10:52.000Z,29.81
2019-06-20T13:12:50.000Z,29.41
2019-06-20T13:14:48.000Z,29.69
2019-06-20T13:16:46.000Z,30.76
2019-06-20T13:18:44.000Z,31.85
2019-06-20T13:20:43.000Z,32.12
2019-06-20T13:22:39.000Z,32.50
2019-06-20T13:24:36.000Z,32.74
2019-06-20T13:26:34.000Z,32.89
2019-06-20T13:28:32.000Z,33.32
2019-06-20T13:30:30.000Z,34.00
2019-06-20T13:32:29.000Z,34.60
2019-06-20T13:34:25.000Z,35.01
2019-06-20T13:36:23.000Z,35.48
2019-06-20T13:38:21.000Z,36.17
2019-06-20T13:40:19.000Z,36.26
2019-06-20T13:42:17.000Z,35.96
2019-06-20T13:44:15.000Z,36.08
2019-06-20T13:46:13.000Z,36.19
2019-06-20T13:48:11.000Z,36.38
2019-06-20T13:50:09.000Z,36.28
2019-06-20T13:52:07.000Z,36.14
2019-06-20T13:54:05.000Z,35.84
2019-06-20T13:56:03.000Z,35.66
2019-06-20T13:59:00.000Z,35.52
2019-06-20T14:00:58.000Z,35.36
2019-06-20T14:02:55.000Z,34.80
2019-06-20T14:03:54.000Z,34.51
2019-06-20T14:04:53.000Z,34.19
2019-06-20T14:05:52.000Z,33.87
2019-06-20T14:06:51.000Z,33.54
2019-06-20T14:07:50.000Z,33.23
2019-06-20T14:08:49.000Z,32.84
2019-06-20T14:10:47.000Z,32.13
2019-06-20T14:11:46.000Z,31.87
2019-06-20T14:12:45.000Z,31.80
2019-06-20T14:13:44.000Z,31.86
2019-06-20T14:14:43.000Z,31.83
2019-06-20T14:15:42.000Z,31.74
2019-06-20T14:16:41.000Z,31.65
2019-06-20T14:17:40.000Z,31.58
2019-06-20T14:18:39.000Z,31.50
2019-06-20T14:20:37.000Z,31.30
2019-06-20T14:22:35.000Z,31.55
2019-06-20T14:24:32.000Z,32.17
2019-06-20T14:26:32.000Z,32.51
2019-06-20T14:28:29.000Z,32.46
2019-06-20T14:30:25.000Z,31.87
2019-06-20T14:32:23.000Z,31.22
2019-06-20T14:34:20.000Z,30.67
2019-06-20T14:36:18.000Z,30.37
2019-06-20T14:38:16.000Z,30.17
2019-06-20T14:40:14.000Z,29.92
2019-06-20T14:42:12.000Z,29.58
2019-06-20T14:44:10.000Z,29.49
2019-06-20T14:46:09.000Z,29.30
2019-06-20T14:48:05.000Z,28.90
2019-06-20T14:50:04.000Z,28.35
2019-06-20T14:52:03.000Z,27.85
2019-06-20T14:54:58.000Z,27.38
2019-06-20T14:56:56.000Z,27.07
2019-06-20T14:58:54.000Z,26.83
2019-06-20T15:00:52.000Z,26.70
2019-06-20T15:03:51.000Z,26.48
2019-06-20T15:05:46.000Z,26.29
2019-06-20T15:07:45.000Z,26.14
2019-06-20T15:09:42.000Z,26.04
2019-06-20T15:11:40.000Z,25.98
2019-06-20T15:13:38.000Z,25.90
2019-06-20T15:15:35.000Z,25.85
2019-06-20T15:17:33.000Z,25.71
2019-06-20T15:19:31.000Z,25.56
2019-06-20T15:21:29.000Z,25.37
2019-06-20T15:23:27.000Z,25.23
2019-06-20T15:25:26.000Z,25.11
2019-06-20T15:27:23.000Z,25.06
2019-06-20T15:29:21.000Z,24.98
2019-06-20T15:31:19.000Z,24.90
2019-06-20T15:33:16.000Z,24.78
2019-06-20T15:35:14.000Z,24.63
2019-06-20T15:37:12.000Z,24.45
2019-06-20T15:39:10.000Z,24.29
2019-06-20T15:41:09.000Z,24.14
2019-06-20T15:43:06.000Z,24.03
2019-06-20T15:45:04.000Z,23.94
2019-06-20T15:47:02.000Z,23.86
2019-06-20T15:49:59.000Z,23.79
2019-06-20T15:51:58.000Z,23.75
2019-06-20T15:53:55.000Z,23.74
2019-06-20T15:55:53.000Z,23.70
2019-06-20T15:57:51.000Z,23.64
2019-06-20T15:59:49.000Z,23.60
2019-06-20T16:01:47.000Z,23.53
2019-06-20T16:03:44.000Z,23.48
2019-06-20T16:05:42.000Z,23.43
2019-06-20T16:07:40.000Z,23.39
2019-06-20T16:09:39.000Z,23.30
2019-06-20T16:11:36.000Z,23.19
2019-06-20T16:13:33.000Z,23.00
2019-06-20T16:15:31.000Z,22.72
2019-06-20T16:17:29.000Z,22.42
2019-06-20T16:19:27.000Z,22.16
2019-06-20T16:21:25.000Z,21.89
2019-06-20T16:23:23.000Z,21.65
2019-06-20T16:25:21.000Z,21.42
2019-06-20T16:27:19.000Z,21.17
2019-06-20T16:29:17.000Z,20.92
2019-06-20T16:31:15.000Z,20.64
2019-06-20T16:33:12.000Z,20.39
2019-06-20T16:35:12.000Z,20.18
2019-06-20T16:37:08.000Z,20.00
2019-06-20T16:39:06.000Z,19.70
2019-06-20T16:41:04.000Z,19.38
2019-06-20T16:43:01.000Z,19.05
2019-06-20T16:45:58.000Z,18.69
2019-06-20T16:47:56.000Z,18.56
2019-06-20T16:49:54.000Z,18.46
2019-06-20T16:51:53.000Z,18.38
2019-06-20T16:53:50.000Z,18.27
2019-06-20T16:55:48.000Z,18.04
2019-06-20T16:57:46.000Z,17.82
2019-06-20T16:59:44.000Z,17.65
2019-06-20T17:01:41.000Z,17.48
2019-06-20T17:03:39.000Z,17.34
2019-06-20T17:05:38.000Z,17.23
2019-06-20T17:07:35.000Z,17.11
2019-06-20T17:09:31.000Z,17.04
2019-06-20T17:11:29.000Z,16.98
2019-06-20T17:13:27.000Z,16.93
2019-06-20T17:15:25.000Z,16.86
2019-06-20T17:17:22.000Z,16.83
2019-06-20T17:19:20.000Z,16.80
2019-06-20T17:21:18.000Z,16.80
2019-06-20T17:23:16.000Z,16.80
2019-06-20T17:25:14.000Z,16.80
2019-06-20T17:27:12.000Z,16.79
2019-06-20T17:29:10.000Z,16.74
2019-06-20T17:31:08.000Z,16.69
2019-06-20T17:32:07.000Z,16.66
2019-06-20T17:38:40.000Z,16.53
2019-06-20T17:41:19.000Z,16.51
2019-06-20T17:43:15.000Z,16.48
2019-06-20T17:45:12.000Z,16.46
2019-06-20T17:53:57.000Z,16.60
2019-06-20T17:55:53.000Z,16.59
2019-06-20T17:57:50.000Z,16.59
2019-06-20T18:01:43.000Z,16.54
2019-06-20T18:04:38.000Z,16.56
2019-06-20T18:06:35.000Z,16.56
2019-06-20T18:08:32.000Z,16.57
2019-06-20T18:10:29.000Z,16.57
2019-06-20T18:12:25.000Z,16.56
2019-06-20T18:14:22.000Z,16.53
2019-06-20T18:16:19.000Z,16.51
2019-06-20T18:18:17.000Z,16.53
2019-06-20T18:20:12.000Z,16.51
2019-06-20T18:21:11.000Z,16.50
2019-06-20T18:23:34.000Z,16.49
2019-06-20T19:14:50.000Z,16.55
2019-06-20T19:16:47.000Z,16.49
2019-06-20T19:18:43.000Z,16.43
2019-06-20T19:20:39.000Z,16.40
2019-06-20T19:22:37.000Z,16.34
2019-06-20T19:24:32.000Z,16.28
2019-06-20T19:26:29.000Z,16.20
2019-06-20T19:28:25.000Z,16.13
2019-06-20T19:30:22.000Z,16.09
2019-06-20T19:32:18.000Z,16.01
2019-06-20T19:34:15.000Z,15.93
2019-06-20T19:36:11.000Z,15.90
2019-06-20T19:38:08.000Z,15.86
2019-06-20T19:40:04.000Z,15.85
2019-06-20T19:42:59.000Z,15.78
2019-06-20T19:44:55.000Z,15.72
2019-06-20T19:49:48.000Z,15.60
2019-06-20T19:52:44.000Z,15.57
2019-06-20T19:53:43.000Z,15.55
2019-06-20T19:55:39.000Z,15.53
2019-06-20T19:57:36.000Z,15.48
2019-06-20T20:01:30.000Z,15.40
2019-06-20T20:04:27.000Z,15.32
2019-06-20T20:06:25.000Z,15.27
2019-06-20T20:08:22.000Z,15.20
2019-06-20T20:10:20.000Z,15.14
2019-06-20T20:12:17.000Z,15.10
2019-06-20T20:14:15.000Z,15.04
2019-06-20T20:16:12.000Z,14.96
2019-06-20T20:18:10.000Z,14.90
2019-06-20T20:20:07.000Z,14.82
2019-06-20T20:22:05.000Z,14.77
2019-06-20T20:24:02.000Z,14.72
2019-06-20T20:26:58.000Z,14.65
2019-06-20T20:28:56.000Z,14.57
2019-06-20T20:30:53.000Z,14.52
2019-06-20T20:32:51.000Z,14.47
2019-06-20T20:34:49.000Z,14.41
2019-06-20T20:36:46.000Z,14.36
2019-06-20T20:38:44.000Z,14.32
2019-06-20T20:40:41.000Z,14.26
2019-06-20T20:42:39.000Z,14.21
2019-06-20T20:44:36.000Z,14.17
2019-06-20T20:46:34.000Z,14.15
2019-06-20T20:47:32.000Z,14.13
2019-06-20T20:50:35.000Z,14.07
2019-06-20T20:54:24.000Z,13.99
2019-06-20T20:56:21.000Z,13.98
2019-06-20T20:58:20.000Z,13.97
2019-06-20T21:00:16.000Z,13.93
2019-06-20T21:02:14.000Z,13.90
2019-06-20T21:04:11.000Z,13.86
2019-06-20T21:06:14.000Z,13.81
2019-06-20T21:08:06.000Z,13.76
2019-06-20T21:10:04.000Z,13.72
2019-06-20T21:13:00.000Z,13.68
2019-06-20T21:14:58.000Z,13.64
2019-06-20T21:16:55.000Z,13.63
2019-06-20T21:18:53.000Z,13.60
2019-06-20T21:20:50.000Z,13.55
2019-06-20T21:22:48.000Z,13.54
2019-06-20T21:24:46.000Z,13.49
2019-06-20T21:26:44.000Z,13.45
2019-06-20T21:28:42.000Z,13.41
2019-06-20T21:30:40.000Z,13.41
2019-06-20T21:32:37.000Z,13.40
2019-06-20T21:34:34.000Z,13.44
2019-06-20T21:36:32.000Z,13.49
2019-06-20T21:38:29.000Z,13.51
2019-06-20T21:40:27.000Z,13.49
2019-06-20T21:42:24.000Z,13.46
2019-06-20T21:44:22.000Z,13.44
2019-06-20T21:46:19.000Z,13.41
2019-06-20T21:48:16.000Z,13.39
2019-06-20T21:50:14.000Z,13.37
2019-06-20T21:52:11.000Z,13.35
2019-06-20T21:54:09.000Z,13.31
2019-06-20T21:56:10.000Z,13.30
2019-06-20T21:58:04.000Z,13.27
2019-06-20T22:00:01.000Z,13.26
2019-06-20T22:01:00.000Z,13.26
2019-06-20T22:05:47.000Z,13.23
2019-06-20T22:10:35.000Z,13.24
2019-06-20T22:15:23.000Z,13.26
2019-06-20T22:20:10.000Z,13.25
2019-06-20T22:24:58.000Z,13.25
2019-06-20T22:29:46.000Z,13.28
2019-06-20T22:34:33.000Z,13.32
2019-06-20T22:39:21.000Z,13.36
2019-06-20T22:44:09.000Z,13.39
2019-06-20T22:48:57.000Z,13.43
2019-06-20T22:53:44.000Z,13.41
2019-06-20T22:58:32.000Z,13.37
2019-06-20T23:03:20.000Z,13.32
2019-06-20T23:08:08.000Z,13.25
2019-06-20T23:12:55.000Z,13.19
2019-06-20T23:17:43.000Z,13.11
2019-06-20T23:22:31.000Z,12.94
2019-06-20T23:27:18.000Z,12.86
2019-06-20T23:32:06.000Z,12.82
2019-06-20T23:36:54.000Z,12.81
2019-06-20T23:41:41.000Z,12.78
2019-06-20T23:46:29.000Z,12.73
2019-06-20T23:51:16.000Z,12.72
2019-06-20T23:56:04.000Z,12.75
